sensor_id;sensor_type;location;lat;lon;timestamp;temperature;humidity
66102;HTU21D;52883;51.094;5.880;2022-12-07T00:00:29;4.18;118.99
66102;HTU21D;52883;51.094;5.880;2022-12-07T00:02:55;4.07;118.99
66102;HTU21D;52883;51.094;5.880;2022-12-07T00:05:21;3.97;118.99
66102;HTU21D;52883;51.094;5.880;2022-12-07T00:07:46;3.88;118.99
66102;HTU21D;52883;51.094;5.880;2022-12-07T00:10:20;3.78;118.99
66102;HTU21D;52883;51.094;5.880;2022-12-07T00:12:45;3.71;118.99
66102;HTU21D;52883;51.094;5.880;2022-12-07T00:15:11;3.62;118.99
66102;HTU21D;52883;51.094;5.880;2022-12-07T00:17:36;3.54;118.99
66102;HTU21D;52883;51.094;5.880;2022-12-07T00:20:02;3.43;118.99
66102;HTU21D;52883;51.094;5.880;2022-12-07T00:22:28;3.32;118.99
66102;HTU21D;52883;51.094;5.880;2022-12-07T00:24:53;3.25;118.99
66102;HTU21D;52883;51.094;5.880;2022-12-07T00:27:22;3.16;118.99
66102;HTU21D;52883;51.094;5.880;2022-12-07T00:29:47;3.16;118.99
66102;HTU21D;52883;51.094;5.880;2022-12-07T00:32:13;3.20;118.99
66102;HTU21D;52883;51.094;5.880;2022-12-07T00:34:38;3.23;118.99
66102;HTU21D;52883;51.094;5.880;2022-12-07T00:37:04;3.17;118.99
66102;HTU21D;52883;51.094;5.880;2022-12-07T00:39:30;3.09;118.99
66102;HTU21D;52883;51.094;5.880;2022-12-07T00:41:55;3.02;118.99
66102;HTU21D;52883;51.094;5.880;2022-12-07T00:44:21;3.04;118.99
66102;HTU21D;52883;51.094;5.880;2022-12-07T00:46:46;3.09;118.99
66102;HTU21D;52883;51.094;5.880;2022-12-07T00:49:15;3.25;118.99
66102;HTU21D;52883;51.094;5.880;2022-12-07T00:51:41;3.41;118.99
66102;HTU21D;52883;51.094;5.880;2022-12-07T00:54:06;3.57;118.99
66102;HTU21D;52883;51.094;5.880;2022-12-07T00:56:32;3.71;118.99
66102;HTU21D;52883;51.094;5.880;2022-12-07T00:59:00;3.77;118.99
66102;HTU21D;52883;51.094;5.880;2022-12-07T01:01:30;3.77;118.99
66102;HTU21D;52883;51.094;5.880;2022-12-07T01:03:57;3.69;118.99
66102;HTU21D;52883;51.094;5.880;2022-12-07T01:06:24;3.60;118.99
66102;HTU21D;52883;51.094;5.880;2022-12-07T01:08:54;3.50;118.99
66102;HTU21D;52883;51.094;5.880;2022-12-07T01:11:23;3.43;118.99
66102;HTU21D;52883;51.094;5.880;2022-12-07T01:13:53;3.41;118.99
66102;HTU21D;52883;51.094;5.880;2022-12-07T01:16:21;3.42;118.99
66102;HTU21D;52883;51.094;5.880;2022-12-07T01:18:50;3.47;118.99
66102;HTU21D;52883;51.094;5.880;2022-12-07T01:21:22;3.53;118.99
66102;HTU21D;52883;51.094;5.880;2022-12-07T01:23:52;3.61;118.99
66102;HTU21D;52883;51.094;5.880;2022-12-07T01:26:21;3.70;118.99
66102;HTU21D;52883;51.094;5.880;2022-12-07T01:28:48;3.74;118.99
66102;HTU21D;52883;51.094;5.880;2022-12-07T01:31:17;3.77;118.99
66102;HTU21D;52883;51.094;5.880;2022-12-07T01:33:46;3.79;118.99
66102;HTU21D;52883;51.094;5.880;2022-12-07T01:36:27;3.83;118.99
66102;HTU21D;52883;51.094;5.880;2022-12-07T01:39:01;3.87;118.99
66102;HTU21D;52883;51.094;5.880;2022-12-07T01:41:31;3.88;118.99
66102;HTU21D;52883;51.094;5.880;2022-12-07T01:44:17;3.88;118.99
66102;HTU21D;52883;51.094;5.880;2022-12-07T01:49:33;3.83;118.99
66102;HTU21D;52883;51.094;5.880;2022-12-07T01:52:28;3.77;118.99
66102;HTU21D;52883;51.094;5.880;2022-12-07T01:55:07;3.75;118.99
66102;HTU21D;52883;51.094;5.880;2022-12-07T01:57:38;3.70;118.99
66102;HTU21D;52883;51.094;5.880;2022-12-07T02:00:07;3.63;118.99
66102;HTU21D;52883;51.094;5.880;2022-12-07T02:02:49;3.49;118.99
66102;HTU21D;52883;51.094;5.880;2022-12-07T02:05:17;3.40;118.99
66102;HTU21D;52883;51.094;5.880;2022-12-07T02:07:46;3.33;118.99
66102;HTU21D;52883;51.094;5.880;2022-12-07T02:12:38;3.23;118.99
66102;HTU21D;52883;51.094;5.880;2022-12-07T02:15:05;3.18;118.99
66102;HTU21D;52883;51.094;5.880;2022-12-07T02:18:16;3.14;118.99
66102;HTU21D;52883;51.094;5.880;2022-12-07T02:20:34;3.12;118.99
66102;HTU21D;52883;51.094;5.880;2022-12-07T02:23:39;3.18;118.99
66102;HTU21D;52883;51.094;5.880;2022-12-07T02:26:28;3.30;118.99
66102;HTU21D;52883;51.094;5.880;2022-12-07T02:31:50;3.52;118.99
66102;HTU21D;52883;51.094;5.880;2022-12-07T02:34:50;3.63;118.99
66102;HTU21D;52883;51.094;5.880;2022-12-07T02:37:42;3.71;118.99
66102;HTU21D;52883;51.094;5.880;2022-12-07T02:43:12;3.82;118.99
66102;HTU21D;52883;51.094;5.880;2022-12-07T02:45:42;3.83;118.99
66102;HTU21D;52883;51.094;5.880;2022-12-07T02:48:13;3.84;118.99
66102;HTU21D;52883;51.094;5.880;2022-12-07T02:50:39;3.82;118.99
66102;HTU21D;52883;51.094;5.880;2022-12-07T02:53:04;3.80;118.99
66102;HTU21D;52883;51.094;5.880;2022-12-07T02:55:37;3.84;118.99
66102;HTU21D;52883;51.094;5.880;2022-12-07T02:58:41;3.88;118.99
66102;HTU21D;52883;51.094;5.880;2022-12-07T03:07:03;3.92;118.99
66102;HTU21D;52883;51.094;5.880;2022-12-07T03:09:37;3.87;118.99
66102;HTU21D;52883;51.094;5.880;2022-12-07T03:14:50;3.70;118.99
66102;HTU21D;52883;51.094;5.880;2022-12-07T03:17:24;3.67;118.99
66102;HTU21D;52883;51.094;5.880;2022-12-07T03:19:56;3.65;118.99
66102;HTU21D;52883;51.094;5.880;2022-12-07T03:22:23;3.65;118.99
66102;HTU21D;52883;51.094;5.880;2022-12-07T03:24:58;3.67;118.99
66102;HTU21D;52883;51.094;5.880;2022-12-07T03:27:34;3.70;118.99
66102;HTU21D;52883;51.094;5.880;2022-12-07T03:30:13;3.76;118.99
66102;HTU21D;52883;51.094;5.880;2022-12-07T03:33:08;3.82;118.99
66102;HTU21D;52883;51.094;5.880;2022-12-07T03:35:45;3.89;118.99
66102;HTU21D;52883;51.094;5.880;2022-12-07T03:38:32;3.91;118.99
66102;HTU21D;52883;51.094;5.880;2022-12-07T03:41:26;4.00;118.99
66102;HTU21D;52883;51.094;5.880;2022-12-07T03:43:55;4.06;118.99
66102;HTU21D;52883;51.094;5.880;2022-12-07T03:47:02;4.10;118.99
66102;HTU21D;52883;51.094;5.880;2022-12-07T03:49:42;4.14;118.99
66102;HTU21D;52883;51.094;5.880;2022-12-07T03:52:31;4.08;118.99
66102;HTU21D;52883;51.094;5.880;2022-12-07T03:55:25;4.00;118.99
66102;HTU21D;52883;51.094;5.880;2022-12-07T03:57:52;3.93;118.99
66102;HTU21D;52883;51.094;5.880;2022-12-07T04:00:19;3.86;118.99
66102;HTU21D;52883;51.094;5.880;2022-12-07T04:02:45;3.77;118.99
66102;HTU21D;52883;51.094;5.880;2022-12-07T04:05:12;3.71;118.99
66102;HTU21D;52883;51.094;5.880;2022-12-07T04:07:38;3.63;118.99
66102;HTU21D;52883;51.094;5.880;2022-12-07T04:10:04;3.56;118.99
66102;HTU21D;52883;51.094;5.880;2022-12-07T04:12:30;3.50;118.99
66102;HTU21D;52883;51.094;5.880;2022-12-07T04:14:56;3.46;118.99
66102;HTU21D;52883;51.094;5.880;2022-12-07T04:17:21;3.45;118.99
66102;HTU21D;52883;51.094;5.880;2022-12-07T04:19:49;3.46;118.99
66102;HTU21D;52883;51.094;5.880;2022-12-07T04:22:15;3.43;118.99
66102;HTU21D;52883;51.094;5.880;2022-12-07T04:24:41;3.36;118.99
66102;HTU21D;52883;51.094;5.880;2022-12-07T04:27:06;3.28;118.99
66102;HTU21D;52883;51.094;5.880;2022-12-07T04:29:32;3.21;118.99
66102;HTU21D;52883;51.094;5.880;2022-12-07T04:31:58;3.23;118.99
66102;HTU21D;52883;51.094;5.880;2022-12-07T04:34:23;3.23;118.99
66102;HTU21D;52883;51.094;5.880;2022-12-07T04:36:49;3.19;118.99
66102;HTU21D;52883;51.094;5.880;2022-12-07T04:39:33;3.25;118.99
66102;HTU21D;52883;51.094;5.880;2022-12-07T04:41:59;3.30;118.99
66102;HTU21D;52883;51.094;5.880;2022-12-07T04:44:27;3.32;118.99
66102;HTU21D;52883;51.094;5.880;2022-12-07T04:46:54;3.36;118.99
66102;HTU21D;52883;51.094;5.880;2022-12-07T04:49:20;3.43;118.99
66102;HTU21D;52883;51.094;5.880;2022-12-07T04:51:49;3.50;118.99
66102;HTU21D;52883;51.094;5.880;2022-12-07T04:54:16;3.53;118.99
66102;HTU21D;52883;51.094;5.880;2022-12-07T04:56:42;3.60;118.99
66102;HTU21D;52883;51.094;5.880;2022-12-07T04:59:10;3.61;118.99
66102;HTU21D;52883;51.094;5.880;2022-12-07T05:01:39;3.60;118.99
66102;HTU21D;52883;51.094;5.880;2022-12-07T05:04:06;3.58;118.99
66102;HTU21D;52883;51.094;5.880;2022-12-07T05:06:32;3.59;118.99
66102;HTU21D;52883;51.094;5.880;2022-12-07T05:08:57;3.65;118.99
66102;HTU21D;52883;51.094;5.880;2022-12-07T05:11:23;3.72;118.99
66102;HTU21D;52883;51.094;5.880;2022-12-07T05:14:16;3.74;118.99
66102;HTU21D;52883;51.094;5.880;2022-12-07T05:16:44;3.76;118.99
66102;HTU21D;52883;51.094;5.880;2022-12-07T05:19:10;3.79;118.99
66102;HTU21D;52883;51.094;5.880;2022-12-07T05:21:38;3.82;118.99
66102;HTU21D;52883;51.094;5.880;2022-12-07T05:24:04;3.84;118.99
66102;HTU21D;52883;51.094;5.880;2022-12-07T05:26:31;3.88;118.99
66102;HTU21D;52883;51.094;5.880;2022-12-07T05:28:57;3.91;118.99
66102;HTU21D;52883;51.094;5.880;2022-12-07T05:31:25;3.95;118.99
66102;HTU21D;52883;51.094;5.880;2022-12-07T05:33:51;3.98;118.99
66102;HTU21D;52883;51.094;5.880;2022-12-07T05:36:17;3.98;118.99
66102;HTU21D;52883;51.094;5.880;2022-12-07T05:38:42;3.95;118.99
66102;HTU21D;52883;51.094;5.880;2022-12-07T05:41:08;3.92;118.99
66102;HTU21D;52883;51.094;5.880;2022-12-07T05:43:56;3.89;118.99
66102;HTU21D;52883;51.094;5.880;2022-12-07T05:46:22;3.83;118.99
66102;HTU21D;52883;51.094;5.880;2022-12-07T05:48:48;3.75;118.99
66102;HTU21D;52883;51.094;5.880;2022-12-07T05:51:14;3.69;118.99
66102;HTU21D;52883;51.094;5.880;2022-12-07T05:53:39;3.63;118.99
66102;HTU21D;52883;51.094;5.880;2022-12-07T05:56:05;3.63;118.99
66102;HTU21D;52883;51.094;5.880;2022-12-07T05:58:31;3.67;118.99
66102;HTU21D;52883;51.094;5.880;2022-12-07T06:01:15;3.69;118.99
66102;HTU21D;52883;51.094;5.880;2022-12-07T06:03:41;3.72;118.99
66102;HTU21D;52883;51.094;5.880;2022-12-07T06:06:06;3.76;118.99
66102;HTU21D;52883;51.094;5.880;2022-12-07T06:08:32;3.82;118.99
66102;HTU21D;52883;51.094;5.880;2022-12-07T06:10:58;3.86;118.99
66102;HTU21D;52883;51.094;5.880;2022-12-07T06:13:52;3.88;118.99
66102;HTU21D;52883;51.094;5.880;2022-12-07T06:16:24;3.90;118.99
66102;HTU21D;52883;51.094;5.880;2022-12-07T06:18:50;3.90;118.99
66102;HTU21D;52883;51.094;5.880;2022-12-07T06:21:15;3.93;118.99
66102;HTU21D;52883;51.094;5.880;2022-12-07T06:23:41;3.95;118.99
66102;HTU21D;52883;51.094;5.880;2022-12-07T06:26:07;3.98;118.99
66102;HTU21D;52883;51.094;5.880;2022-12-07T06:28:32;4.00;118.99
66102;HTU21D;52883;51.094;5.880;2022-12-07T06:31:02;4.00;118.99
66102;HTU21D;52883;51.094;5.880;2022-12-07T06:33:28;3.98;118.99
66102;HTU21D;52883;51.094;5.880;2022-12-07T06:35:56;3.98;118.99
66102;HTU21D;52883;51.094;5.880;2022-12-07T06:38:22;3.98;118.99
66102;HTU21D;52883;51.094;5.880;2022-12-07T06:40:50;3.95;118.99
66102;HTU21D;52883;51.094;5.880;2022-12-07T06:43:16;3.93;118.99
66102;HTU21D;52883;51.094;5.880;2022-12-07T06:45:42;3.93;118.99
66102;HTU21D;52883;51.094;5.880;2022-12-07T06:48:08;3.88;118.99
66102;HTU21D;52883;51.094;5.880;2022-12-07T06:50:33;3.88;118.99
66102;HTU21D;52883;51.094;5.880;2022-12-07T06:52:59;3.86;118.99
66102;HTU21D;52883;51.094;5.880;2022-12-07T06:55:25;3.86;118.99
66102;HTU21D;52883;51.094;5.880;2022-12-07T06:57:50;3.85;118.99
66102;HTU21D;52883;51.094;5.880;2022-12-07T07:00:16;3.83;118.99
66102;HTU21D;52883;51.094;5.880;2022-12-07T07:02:42;3.80;118.99
66102;HTU21D;52883;51.094;5.880;2022-12-07T07:05:08;3.75;118.99
66102;HTU21D;52883;51.094;5.880;2022-12-07T07:07:34;3.72;118.99
66102;HTU21D;52883;51.094;5.880;2022-12-07T07:09:59;3.68;118.99
66102;HTU21D;52883;51.094;5.880;2022-12-07T07:12:25;3.63;118.99
66102;HTU21D;52883;51.094;5.880;2022-12-07T07:14:50;3.54;118.99
66102;HTU21D;52883;51.094;5.880;2022-12-07T07:17:16;3.43;118.99
66102;HTU21D;52883;51.094;5.880;2022-12-07T07:19:42;3.28;118.99
66102;HTU21D;52883;51.094;5.880;2022-12-07T07:22:07;3.19;118.99
66102;HTU21D;52883;51.094;5.880;2022-12-07T07:24:33;3.16;118.99
66102;HTU21D;52883;51.094;5.880;2022-12-07T07:26:58;3.14;118.99
66102;HTU21D;52883;51.094;5.880;2022-12-07T07:29:24;3.17;118.99
66102;HTU21D;52883;51.094;5.880;2022-12-07T07:31:50;3.25;118.99
66102;HTU21D;52883;51.094;5.880;2022-12-07T07:34:15;3.30;118.99
66102;HTU21D;52883;51.094;5.880;2022-12-07T07:36:41;3.31;118.99
66102;HTU21D;52883;51.094;5.880;2022-12-07T07:39:06;3.30;118.99
66102;HTU21D;52883;51.094;5.880;2022-12-07T07:41:32;3.25;118.99
66102;HTU21D;52883;51.094;5.880;2022-12-07T07:43:58;3.13;118.99
66102;HTU21D;52883;51.094;5.880;2022-12-07T07:46:23;3.02;118.99
66102;HTU21D;52883;51.094;5.880;2022-12-07T07:48:49;2.97;118.99
66102;HTU21D;52883;51.094;5.880;2022-12-07T07:51:15;2.94;118.99
66102;HTU21D;52883;51.094;5.880;2022-12-07T07:53:40;2.91;118.99
66102;HTU21D;52883;51.094;5.880;2022-12-07T07:56:06;2.84;118.99
66102;HTU21D;52883;51.094;5.880;2022-12-07T07:58:31;2.73;118.99
66102;HTU21D;52883;51.094;5.880;2022-12-07T08:01:03;2.61;118.99
66102;HTU21D;52883;51.094;5.880;2022-12-07T08:03:29;2.55;118.99
66102;HTU21D;52883;51.094;5.880;2022-12-07T08:05:55;2.51;118.99
66102;HTU21D;52883;51.094;5.880;2022-12-07T08:08:20;2.52;118.99
66102;HTU21D;52883;51.094;5.880;2022-12-07T08:10:46;2.52;118.99
66102;HTU21D;52883;51.094;5.880;2022-12-07T08:13:11;2.57;118.99
66102;HTU21D;52883;51.094;5.880;2022-12-07T08:15:40;2.66;118.99
66102;HTU21D;52883;51.094;5.880;2022-12-07T08:18:07;2.80;118.99
66102;HTU21D;52883;51.094;5.880;2022-12-07T08:20:34;2.93;118.99
66102;HTU21D;52883;51.094;5.880;2022-12-07T08:23:00;3.04;118.99
66102;HTU21D;52883;51.094;5.880;2022-12-07T08:25:27;3.20;118.99
66102;HTU21D;52883;51.094;5.880;2022-12-07T08:27:53;3.43;118.99
66102;HTU21D;52883;51.094;5.880;2022-12-07T08:30:21;3.77;118.99
66102;HTU21D;52883;51.094;5.880;2022-12-07T08:32:50;4.14;118.99
66102;HTU21D;52883;51.094;5.880;2022-12-07T08:35:16;4.46;118.99
66102;HTU21D;52883;51.094;5.880;2022-12-07T08:37:42;4.71;118.99
66102;HTU21D;52883;51.094;5.880;2022-12-07T08:40:11;4.88;118.99
66102;HTU21D;52883;51.094;5.880;2022-12-07T08:42:51;5.02;118.99
66102;HTU21D;52883;51.094;5.880;2022-12-07T08:45:17;5.09;118.99
66102;HTU21D;52883;51.094;5.880;2022-12-07T08:47:52;5.08;118.99
66102;HTU21D;52883;51.094;5.880;2022-12-07T08:50:20;5.08;118.99
66102;HTU21D;52883;51.094;5.880;2022-12-07T08:52:55;5.06;118.99
66102;HTU21D;52883;51.094;5.880;2022-12-07T08:55:23;5.03;118.99
66102;HTU21D;52883;51.094;5.880;2022-12-07T08:57:52;4.96;118.99
66102;HTU21D;52883;51.094;5.880;2022-12-07T09:00:17;4.97;118.99
66102;HTU21D;52883;51.094;5.880;2022-12-07T09:02:44;4.98;118.99
66102;HTU21D;52883;51.094;5.880;2022-12-07T09:05:11;5.04;118.99
66102;HTU21D;52883;51.094;5.880;2022-12-07T09:07:38;5.05;118.99
66102;HTU21D;52883;51.094;5.880;2022-12-07T09:10:05;5.06;118.99
66102;HTU21D;52883;51.094;5.880;2022-12-07T09:12:30;5.13;118.99
66102;HTU21D;52883;51.094;5.880;2022-12-07T09:14:56;5.17;118.99
66102;HTU21D;52883;51.094;5.880;2022-12-07T09:17:22;5.15;118.99
66102;HTU21D;52883;51.094;5.880;2022-12-07T09:19:47;5.02;118.99
66102;HTU21D;52883;51.094;5.880;2022-12-07T09:22:13;4.95;118.99
66102;HTU21D;52883;51.094;5.880;2022-12-07T09:24:39;5.03;118.99
66102;HTU21D;52883;51.094;5.880;2022-12-07T09:27:04;5.17;118.99
66102;HTU21D;52883;51.094;5.880;2022-12-07T09:29:30;5.33;118.99
66102;HTU21D;52883;51.094;5.880;2022-12-07T09:31:55;5.43;118.99
66102;HTU21D;52883;51.094;5.880;2022-12-07T09:34:21;5.56;118.99
66102;HTU21D;52883;51.094;5.880;2022-12-07T09:36:50;5.67;118.99
66102;HTU21D;52883;51.094;5.880;2022-12-07T09:39:15;5.70;118.99
66102;HTU21D;52883;51.094;5.880;2022-12-07T09:41:44;5.72;118.99
66102;HTU21D;52883;51.094;5.880;2022-12-07T09:44:13;5.79;118.99
66102;HTU21D;52883;51.094;5.880;2022-12-07T09:46:42;5.92;118.99
66102;HTU21D;52883;51.094;5.880;2022-12-07T09:49:20;5.99;118.99
66102;HTU21D;52883;51.094;5.880;2022-12-07T09:51:47;6.07;118.99
66102;HTU21D;52883;51.094;5.880;2022-12-07T09:54:16;6.15;118.99
66102;HTU21D;52883;51.094;5.880;2022-12-07T09:56:43;6.11;118.99
66102;HTU21D;52883;51.094;5.880;2022-12-07T09:59:16;6.07;118.99
66102;HTU21D;52883;51.094;5.880;2022-12-07T10:01:45;6.09;118.99
66102;HTU21D;52883;51.094;5.880;2022-12-07T10:06:43;6.41;118.99
66102;HTU21D;52883;51.094;5.880;2022-12-07T10:09:12;6.71;118.99
66102;HTU21D;52883;51.094;5.880;2022-12-07T10:12:07;6.96;118.99
66102;HTU21D;52883;51.094;5.880;2022-12-07T10:14:37;7.19;118.99
66102;HTU21D;52883;51.094;5.880;2022-12-07T10:17:34;7.48;118.99
66102;HTU21D;52883;51.094;5.880;2022-12-07T10:20:23;7.69;118.99
66102;HTU21D;52883;51.094;5.880;2022-12-07T10:25:32;7.71;118.99
66102;HTU21D;52883;51.094;5.880;2022-12-07T10:28:21;7.69;118.99
66102;HTU21D;52883;51.094;5.880;2022-12-07T10:30:57;7.65;118.99
66102;HTU21D;52883;51.094;5.880;2022-12-07T10:33:34;7.67;118.99
66102;HTU21D;52883;51.094;5.880;2022-12-07T10:37:06;7.72;118.99
66102;HTU21D;52883;51.094;5.880;2022-12-07T10:39:23;7.77;118.99
66102;HTU21D;52883;51.094;5.880;2022-12-07T10:42:00;7.79;118.99
66102;HTU21D;52883;51.094;5.880;2022-12-07T10:44:31;7.71;118.99
66102;HTU21D;52883;51.094;5.880;2022-12-07T10:47:09;7.75;118.99
66102;HTU21D;52883;51.094;5.880;2022-12-07T11:00:58;8.42;118.99
66102;HTU21D;52883;51.094;5.880;2022-12-07T11:10:01;8.11;118.99
66102;HTU21D;52883;51.094;5.880;2022-12-07T11:12:44;8.08;118.99
66102;HTU21D;52883;51.094;5.880;2022-12-07T11:15:32;8.15;118.99
66102;HTU21D;52883;51.094;5.880;2022-12-07T11:18:07;8.14;118.99
66102;HTU21D;52883;51.094;5.880;2022-12-07T11:26:46;7.32;118.99
66102;HTU21D;52883;51.094;5.880;2022-12-07T11:35:08;7.07;118.99
66102;HTU21D;52883;51.094;5.880;2022-12-07T11:37:39;7.13;118.99
66102;HTU21D;52883;51.094;5.880;2022-12-07T11:40:17;7.23;118.99
66102;HTU21D;52883;51.094;5.880;2022-12-07T11:48:34;7.91;118.99
66102;HTU21D;52883;51.094;5.880;2022-12-07T11:51:02;8.11;118.99
66102;HTU21D;52883;51.094;5.880;2022-12-07T11:53:42;8.18;118.99
66102;HTU21D;52883;51.094;5.880;2022-12-07T11:56:13;8.26;118.99
66102;HTU21D;52883;51.094;5.880;2022-12-07T12:03:58;8.37;118.99
66102;HTU21D;52883;51.094;5.880;2022-12-07T12:06:26;8.48;118.99
66102;HTU21D;52883;51.094;5.880;2022-12-07T12:09:15;8.63;118.99
66102;HTU21D;52883;51.094;5.880;2022-12-07T12:14:36;9.02;118.99
66102;HTU21D;52883;51.094;5.880;2022-12-07T12:22:39;9.42;118.99
66102;HTU21D;52883;51.094;5.880;2022-12-07T12:25:19;9.38;118.99
66102;HTU21D;52883;51.094;5.880;2022-12-07T12:27:48;9.37;118.99
66102;HTU21D;52883;51.094;5.880;2022-12-07T12:30:39;9.34;118.99
66102;HTU21D;52883;51.094;5.880;2022-12-07T12:33:19;9.19;118.99
66102;HTU21D;52883;51.094;5.880;2022-12-07T12:38:48;8.78;118.99
66102;HTU21D;52883;51.094;5.880;2022-12-07T12:41:54;8.71;118.99
66102;HTU21D;52883;51.094;5.880;2022-12-07T12:46:56;8.67;118.99
66102;HTU21D;52883;51.094;5.880;2022-12-07T12:51:53;8.60;118.99
66102;HTU21D;52883;51.094;5.880;2022-12-07T12:57:21;8.64;118.99
66102;HTU21D;52883;51.094;5.880;2022-12-07T13:00:00;8.64;118.99
66102;HTU21D;52883;51.094;5.880;2022-12-07T13:02:33;8.64;118.99
66102;HTU21D;52883;51.094;5.880;2022-12-07T13:10:39;8.42;118.99
66102;HTU21D;52883;51.094;5.880;2022-12-07T13:29:15;7.87;118.99
66102;HTU21D;52883;51.094;5.880;2022-12-07T13:34:33;7.82;118.99
66102;HTU21D;52883;51.094;5.880;2022-12-07T13:39:54;7.57;118.99
66102;HTU21D;52883;51.094;5.880;2022-12-07T13:42:27;7.46;118.99
66102;HTU21D;52883;51.094;5.880;2022-12-07T13:44:53;7.42;118.99
66102;HTU21D;52883;51.094;5.880;2022-12-07T13:49:58;7.37;118.99
66102;HTU21D;52883;51.094;5.880;2022-12-07T13:52:27;7.38;118.99
66102;HTU21D;52883;51.094;5.880;2022-12-07T13:55:13;7.34;118.99
66102;HTU21D;52883;51.094;5.880;2022-12-07T13:57:40;7.26;118.99
66102;HTU21D;52883;51.094;5.880;2022-12-07T14:00:17;7.15;118.99
66102;HTU21D;52883;51.094;5.880;2022-12-07T14:05:43;6.91;118.99
66102;HTU21D;52883;51.094;5.880;2022-12-07T14:10:55;6.88;118.99
66102;HTU21D;52883;51.094;5.880;2022-12-07T14:13:29;6.91;118.99
66102;HTU21D;52883;51.094;5.880;2022-12-07T14:15:56;6.96;118.99
66102;HTU21D;52883;51.094;5.880;2022-12-07T14:18:37;7.05;118.99
66102;HTU21D;52883;51.094;5.880;2022-12-07T14:21:15;7.13;118.99
66102;HTU21D;52883;51.094;5.880;2022-12-07T14:23:42;7.17;118.99
66102;HTU21D;52883;51.094;5.880;2022-12-07T14:26:13;7.19;118.99
66102;HTU21D;52883;51.094;5.880;2022-12-07T14:28:40;7.22;118.99
66102;HTU21D;52883;51.094;5.880;2022-12-07T14:31:15;7.19;118.99
66102;HTU21D;52883;51.094;5.880;2022-12-07T14:33:42;7.12;118.99
66102;HTU21D;52883;51.094;5.880;2022-12-07T14:36:10;7.02;118.99
66102;HTU21D;52883;51.094;5.880;2022-12-07T14:38:36;6.93;118.99
66102;HTU21D;52883;51.094;5.880;2022-12-07T14:41:02;6.86;118.99
66102;HTU21D;52883;51.094;5.880;2022-12-07T14:43:47;6.78;118.99
66102;HTU21D;52883;51.094;5.880;2022-12-07T14:46:13;6.69;118.99
66102;HTU21D;52883;51.094;5.880;2022-12-07T14:48:39;6.54;118.99
66102;HTU21D;52883;51.094;5.880;2022-12-07T14:51:05;6.36;118.99
66102;HTU21D;52883;51.094;5.880;2022-12-07T14:53:35;6.12;118.99
66102;HTU21D;52883;51.094;5.880;2022-12-07T14:56:03;5.90;118.99
66102;HTU21D;52883;51.094;5.880;2022-12-07T14:58:30;5.70;118.99
66102;HTU21D;52883;51.094;5.880;2022-12-07T15:00:56;5.53;118.99
66102;HTU21D;52883;51.094;5.880;2022-12-07T15:03:22;5.38;118.99
66102;HTU21D;52883;51.094;5.880;2022-12-07T15:05:50;5.23;118.99
66102;HTU21D;52883;51.094;5.880;2022-12-07T15:08:16;5.11;118.99
66102;HTU21D;52883;51.094;5.880;2022-12-07T15:10:42;5.02;118.99
66102;HTU21D;52883;51.094;5.880;2022-12-07T15:13:08;4.96;118.99
66102;HTU21D;52883;51.094;5.880;2022-12-07T15:15:54;4.90;118.99
66102;HTU21D;52883;51.094;5.880;2022-12-07T15:18:24;4.87;118.99
66102;HTU21D;52883;51.094;5.880;2022-12-07T15:20:52;4.82;118.99
66102;HTU21D;52883;51.094;5.880;2022-12-07T15:23:18;4.73;118.99
66102;HTU21D;52883;51.094;5.880;2022-12-07T15:25:46;4.63;118.99
66102;HTU21D;52883;51.094;5.880;2022-12-07T15:28:13;4.57;118.99
66102;HTU21D;52883;51.094;5.880;2022-12-07T15:30:41;4.52;118.99
66102;HTU21D;52883;51.094;5.880;2022-12-07T15:33:08;4.52;118.99
66102;HTU21D;52883;51.094;5.880;2022-12-07T15:35:38;4.54;118.99
66102;HTU21D;52883;51.094;5.880;2022-12-07T15:38:04;4.54;118.99
66102;HTU21D;52883;51.094;5.880;2022-12-07T15:40:30;4.54;118.99
66102;HTU21D;52883;51.094;5.880;2022-12-07T15:42:57;4.49;118.99
66102;HTU21D;52883;51.094;5.880;2022-12-07T15:45:22;4.42;118.99
66102;HTU21D;52883;51.094;5.880;2022-12-07T15:47:48;4.30;118.99
66102;HTU21D;52883;51.094;5.880;2022-12-07T15:50:15;4.22;118.99
66102;HTU21D;52883;51.094;5.880;2022-12-07T15:52:41;4.17;118.99
66102;HTU21D;52883;51.094;5.880;2022-12-07T15:55:09;4.14;118.99
66102;HTU21D;52883;51.094;5.880;2022-12-07T15:57:36;4.12;118.99
66102;HTU21D;52883;51.094;5.880;2022-12-07T16:00:03;4.18;118.99
66102;HTU21D;52883;51.094;5.880;2022-12-07T16:02:29;4.23;118.99
66102;HTU21D;52883;51.094;5.880;2022-12-07T16:04:55;4.32;118.99
66102;HTU21D;52883;51.094;5.880;2022-12-07T16:07:20;4.41;118.99
66102;HTU21D;52883;51.094;5.880;2022-12-07T16:09:47;4.50;118.99
66102;HTU21D;52883;51.094;5.880;2022-12-07T16:12:13;4.60;118.99
66102;HTU21D;52883;51.094;5.880;2022-12-07T16:14:40;4.67;118.99
66102;HTU21D;52883;51.094;5.880;2022-12-07T16:17:07;4.73;118.99
66102;HTU21D;52883;51.094;5.880;2022-12-07T16:19:34;4.79;118.99
66102;HTU21D;52883;51.094;5.880;2022-12-07T16:22:00;4.82;118.99
66102;HTU21D;52883;51.094;5.880;2022-12-07T16:24:26;4.84;118.99
66102;HTU21D;52883;51.094;5.880;2022-12-07T16:26:52;4.87;118.99
66102;HTU21D;52883;51.094;5.880;2022-12-07T16:29:22;4.89;118.99
66102;HTU21D;52883;51.094;5.880;2022-12-07T16:31:48;4.92;118.99
66102;HTU21D;52883;51.094;5.880;2022-12-07T16:34:18;4.95;118.99
66102;HTU21D;52883;51.094;5.880;2022-12-07T16:36:44;4.98;118.99
66102;HTU21D;52883;51.094;5.880;2022-12-07T16:39:10;5.02;118.99
66102;HTU21D;52883;51.094;5.880;2022-12-07T16:41:35;5.01;118.99
66102;HTU21D;52883;51.094;5.880;2022-12-07T16:44:07;5.00;118.99
66102;HTU21D;52883;51.094;5.880;2022-12-07T16:46:35;4.98;118.99
66102;HTU21D;52883;51.094;5.880;2022-12-07T16:49:02;4.96;118.99
66102;HTU21D;52883;51.094;5.880;2022-12-07T16:51:28;4.95;118.99
66102;HTU21D;52883;51.094;5.880;2022-12-07T16:53:54;4.93;118.99
66102;HTU21D;52883;51.094;5.880;2022-12-07T16:56:22;4.88;118.99
66102;HTU21D;52883;51.094;5.880;2022-12-07T16:58:48;4.79;118.99
66102;HTU21D;52883;51.094;5.880;2022-12-07T17:01:18;4.72;118.99
66102;HTU21D;52883;51.094;5.880;2022-12-07T17:03:44;4.67;118.99
66102;HTU21D;52883;51.094;5.880;2022-12-07T17:06:23;4.65;118.99
66102;HTU21D;52883;51.094;5.880;2022-12-07T17:08:50;4.63;118.99
66102;HTU21D;52883;51.094;5.880;2022-12-07T17:11:25;4.63;118.99
66102;HTU21D;52883;51.094;5.880;2022-12-07T17:13:54;4.61;118.99
66102;HTU21D;52883;51.094;5.880;2022-12-07T17:16:39;4.57;118.99
66102;HTU21D;52883;51.094;5.880;2022-12-07T17:19:06;4.56;118.99
66102;HTU21D;52883;51.094;5.880;2022-12-07T17:21:32;4.60;118.99
66102;HTU21D;52883;51.094;5.880;2022-12-07T17:23:59;4.63;118.99
66102;HTU21D;52883;51.094;5.880;2022-12-07T17:26:28;4.64;118.99
66102;HTU21D;52883;51.094;5.880;2022-12-07T17:28:56;4.67;118.99
66102;HTU21D;52883;51.094;5.880;2022-12-07T17:31:23;4.69;118.99
66102;HTU21D;52883;51.094;5.880;2022-12-07T17:33:49;4.72;118.99